Time;durP1;ratioP1;P1;durP2;ratioP2;P2;SDS_P1;SDS_P2;PMS_P1;PMS_P2;Temp;Humidity;BMP_temperature;BMP_pressure;BME280_temperature;BME280_humidity;BME280_pressure;Samples;Min_cycle;Max_cycle;Signal;HPM_P1;HPM_P2
2021/08/25 00:00:56;;;;;;;;;;;19.90;67.70;;;;;;5070413;28;19916;-60
2021/08/25 00:03:21;;;;;;;;;;;20.00;67.80;;;;;;5073526;28;19916;-59
2021/08/25 00:05:46;;;;;;;;;;;20.00;67.80;;;;;;5063913;28;19919;-54
2021/08/25 00:08:12;;;;;;;;;;;20.00;67.80;;;;;;5077957;28;19920;-55
2021/08/25 00:10:37;;;;;;;;;;;20.00;67.70;;;;;;5065470;28;19958;-58
2021/08/25 00:13:06;;;;;;;;;;;20.00;67.80;;;;;;5070804;28;19923;-56
2021/08/25 00:15:34;;;;;;;;;;;20.00;67.70;;;;;;5075298;28;19919;-56
2021/08/25 00:17:59;;;;;;;;;;;20.00;67.70;;;;;;5075821;28;19936;-58
2021/08/25 00:20:24;;;;;;;;;;;20.00;67.60;;;;;;5074334;28;19927;-56
2021/08/25 00:22:50;;;;;;;;;;;20.00;67.60;;;;;;5079404;28;19923;-57
2021/08/25 00:25:15;;;;;;;;;;;20.00;67.50;;;;;;5065459;28;19924;-57
2021/08/25 00:27:41;;;;;;;;;;;20.00;67.50;;;;;;5068746;28;20330;-59
2021/08/25 00:30:07;;;;;;;;;;;20.00;67.40;;;;;;5078146;28;19919;-59
2021/08/25 00:32:32;;;;;;;;;;;19.90;67.40;;;;;;5066747;28;19912;-60
2021/08/25 00:34:58;;;;;;;;;;;20.00;67.40;;;;;;5067476;28;20388;-60
2021/08/25 00:37:23;;;;;;;;;;;20.00;67.30;;;;;;5082926;28;19916;-60
2021/08/25 00:39:48;;;;;;;;;;;20.00;67.30;;;;;;5066159;28;19927;-60
2021/08/25 00:42:14;;;;;;;;;;;20.00;67.20;;;;;;5074475;28;19912;-58
2021/08/25 00:44:39;;;;;;;;;;;20.00;67.20;;;;;;5069037;28;20372;-60
2021/08/25 00:47:05;;;;;;;;;;;20.00;67.20;;;;;;5062625;28;20018;-60
2021/08/25 00:49:30;;;;;;;;;;;20.00;67.20;;;;;;5064938;28;20319;-56
2021/08/25 00:51:56;;;;;;;;;;;20.00;67.10;;;;;;5073388;28;19916;-59
2021/08/25 00:54:21;;;;;;;;;;;20.00;67.10;;;;;;5058886;28;21936;-60
2021/08/25 00:56:47;;;;;;;;;;;20.00;67.00;;;;;;5081774;28;19912;-59
2021/08/25 00:59:13;;;;;;;;;;;19.90;66.80;;;;;;5080690;28;19912;-59
2021/08/25 01:01:41;;;;;;;;;;;20.00;66.90;;;;;;5078118;28;20634;-59
2021/08/25 01:04:08;;;;;;;;;;;20.00;66.90;;;;;;5070483;28;20046;-58
2021/08/25 01:06:33;;;;;;;;;;;19.90;66.80;;;;;;5069855;28;19920;-59
2021/08/25 01:09:00;;;;;;;;;;;20.00;66.90;;;;;;5043931;28;19916;-60
2021/08/25 01:11:25;;;;;;;;;;;20.00;66.80;;;;;;5081572;28;19985;-59
2021/08/25 01:13:50;;;;;;;;;;;19.90;66.70;;;;;;5076395;28;19916;-58
2021/08/25 01:16:16;;;;;;;;;;;19.90;66.70;;;;;;5077344;28;19920;-60
2021/08/25 01:18:42;;;;;;;;;;;19.90;66.70;;;;;;5080707;28;20333;-60
2021/08/25 01:21:07;;;;;;;;;;;19.90;66.70;;;;;;5063178;28;19991;-59
2021/08/25 01:23:34;;;;;;;;;;;19.90;66.60;;;;;;5046262;28;20620;-58
2021/08/25 01:25:59;;;;;;;;;;;19.90;66.60;;;;;;5048001;28;19913;-59
2021/08/25 01:28:25;;;;;;;;;;;19.90;66.50;;;;;;5082823;28;19949;-60
2021/08/25 01:30:51;;;;;;;;;;;19.90;66.50;;;;;;5049900;28;20612;-60
2021/08/25 01:33:22;;;;;;;;;;;19.90;66.50;;;;;;5071303;28;19927;-59
2021/08/25 01:35:48;;;;;;;;;;;19.90;66.50;;;;;;5045943;28;20402;-58
2021/08/25 01:38:31;;;;;;;;;;;19.90;66.30;;;;;;5073490;28;19932;-59
2021/08/25 01:40:57;;;;;;;;;;;19.90;66.30;;;;;;5051076;28;19970;-65
2021/08/25 01:43:22;;;;;;;;;;;19.90;66.30;;;;;;5075800;28;19916;-59
2021/08/25 01:45:48;;;;;;;;;;;19.90;66.30;;;;;;5080313;28;19912;-59
2021/08/25 01:48:13;;;;;;;;;;;19.90;66.30;;;;;;5081552;28;19922;-56
2021/08/25 01:50:39;;;;;;;;;;;19.90;66.30;;;;;;5078712;28;20377;-59
2021/08/25 01:53:04;;;;;;;;;;;19.90;66.30;;;;;;5079882;28;19912;-58
2021/08/25 01:55:30;;;;;;;;;;;19.90;66.20;;;;;;5080373;28;19924;-57
2021/08/25 01:57:55;;;;;;;;;;;19.90;66.20;;;;;;5078328;28;20473;-57
2021/08/25 02:00:21;;;;;;;;;;;19.90;66.00;;;;;;5072866;28;19912;-58
2021/08/25 02:02:46;;;;;;;;;;;19.90;66.00;;;;;;5066070;28;19912;-57
2021/08/25 02:05:11;;;;;;;;;;;19.90;66.10;;;;;;5083748;28;19916;-59
2021/08/25 02:07:37;;;;;;;;;;;19.90;66.00;;;;;;5074977;28;19983;-58
2021/08/25 02:10:03;;;;;;;;;;;19.90;65.90;;;;;;5054332;28;19917;-59
2021/08/25 02:12:29;;;;;;;;;;;19.90;65.90;;;;;;5069416;28;20481;-57
2021/08/25 02:14:54;;;;;;;;;;;19.90;65.90;;;;;;5063918;28;19923;-58
2021/08/25 02:17:19;;;;;;;;;;;19.90;65.90;;;;;;5080500;28;19935;-59
2021/08/25 02:19:45;;;;;;;;;;;19.90;65.80;;;;;;5062929;28;19917;-58
2021/08/25 02:22:10;;;;;;;;;;;19.90;65.80;;;;;;5072971;28;19912;-59
2021/08/25 02:24:36;;;;;;;;;;;19.90;65.80;;;;;;5076929;28;19927;-58
2021/08/25 02:27:01;;;;;;;;;;;19.90;65.80;;;;;;5068474;28;20271;-59
2021/08/25 02:29:27;;;;;;;;;;;19.80;65.70;;;;;;5081977;28;19912;-57
2021/08/25 02:31:52;;;;;;;;;;;19.80;66.30;;;;;;5072631;28;19913;-57
2021/08/25 02:34:18;;;;;;;;;;;19.80;65.70;;;;;;5079658;28;19966;-59
2021/08/25 02:36:43;;;;;;;;;;;19.90;65.60;;;;;;5083012;28;19941;-57
2021/08/25 02:39:09;;;;;;;;;;;19.90;65.60;;;;;;5075816;28;20430;-59
2021/08/25 02:41:34;;;;;;;;;;;19.90;65.60;;;;;;5077465;28;19912;-56
2021/08/25 02:44:00;;;;;;;;;;;19.90;65.60;;;;;;5050625;28;19924;-56
2021/08/25 02:46:25;;;;;;;;;;;19.90;65.50;;;;;;5073030;28;19920;-59
2021/08/25 02:48:50;;;;;;;;;;;19.80;65.40;;;;;;5081125;28;19919;-58
2021/08/25 02:51:16;;;;;;;;;;;19.90;65.50;;;;;;5076214;28;19912;-58
2021/08/25 02:53:41;;;;;;;;;;;19.80;65.40;;;;;;5078008;28;19912;-59
2021/08/25 02:56:07;;;;;;;;;;;19.80;65.40;;;;;;5083360;28;19916;-57
2021/08/25 02:58:32;;;;;;;;;;;19.80;65.40;;;;;;5081150;28;19916;-58
2021/08/25 03:00:58;;;;;;;;;;;19.80;65.30;;;;;;5078324;28;19939;-59
2021/08/25 03:03:24;;;;;;;;;;;19.80;65.30;;;;;;5073524;28;19920;-58
2021/08/25 03:05:49;;;;;;;;;;;19.80;65.20;;;;;;5078980;28;19920;-58
2021/08/25 03:08:15;;;;;;;;;;;19.80;65.20;;;;;;5078883;28;20007;-57
2021/08/25 03:10:40;;;;;;;;;;;19.80;65.20;;;;;;5069676;28;19916;-59
2021/08/25 03:13:06;;;;;;;;;;;19.80;65.20;;;;;;5070489;28;19977;-57
2021/08/25 03:15:31;;;;;;;;;;;19.80;65.20;;;;;;5069202;28;20305;-57
2021/08/25 03:17:57;;;;;;;;;;;19.80;65.10;;;;;;5071635;28;19916;-58
2021/08/25 03:20:22;;;;;;;;;;;19.80;65.10;;;;;;5068136;28;20398;-57
2021/08/25 03:22:47;;;;;;;;;;;19.80;65.10;;;;;;5066945;28;19919;-58
2021/08/25 03:25:13;;;;;;;;;;;19.80;65.10;;;;;;5065206;28;19924;-58
2021/08/25 03:27:38;;;;;;;;;;;19.80;65.00;;;;;;5073836;28;19959;-58
2021/08/25 03:30:04;;;;;;;;;;;19.80;65.00;;;;;;5066931;28;20270;-58
2021/08/25 03:32:30;;;;;;;;;;;19.80;64.90;;;;;;5073277;28;19951;-65
2021/08/25 03:34:55;;;;;;;;;;;19.80;65.00;;;;;;5068161;28;19934;-58
2021/08/25 03:37:20;;;;;;;;;;;19.80;64.90;;;;;;5063625;28;19958;-58
2021/08/25 03:39:46;;;;;;;;;;;19.80;64.90;;;;;;5070494;28;19924;-58
2021/08/25 03:42:12;;;;;;;;;;;19.80;64.70;;;;;;5075283;28;20377;-58
2021/08/25 03:44:38;;;;;;;;;;;19.80;64.60;;;;;;5068260;28;19978;-59
2021/08/25 03:47:07;;;;;;;;;;;19.80;64.60;;;;;;5070698;28;19924;-59
2021/08/25 03:49:32;;;;;;;;;;;19.80;64.60;;;;;;5048996;28;19913;-57
2021/08/25 03:51:58;;;;;;;;;;;19.80;64.50;;;;;;5069850;28;20313;-58
2021/08/25 03:54:23;;;;;;;;;;;19.70;64.50;;;;;;5079497;28;19923;-58
2021/08/25 03:56:49;;;;;;;;;;;19.70;64.60;;;;;;5072259;28;19916;-59
2021/08/25 03:59:14;;;;;;;;;;;19.70;64.60;;;;;;5069431;28;20336;-59
2021/08/25 04:01:41;;;;;;;;;;;19.70;64.50;;;;;;5072899;28;19920;-59
2021/08/25 04:04:07;;;;;;;;;;;19.70;64.40;;;;;;5068133;28;19923;-59
2021/08/25 04:06:34;;;;;;;;;;;19.70;64.40;;;;;;5069007;28;19912;-58
2021/08/25 04:08:59;;;;;;;;;;;19.70;64.30;;;;;;5067482;28;20302;-56
2021/08/25 04:11:25;;;;;;;;;;;19.70;64.40;;;;;;5062892;28;19919;-58
2021/08/25 04:13:50;;;;;;;;;;;19.70;64.40;;;;;;5072368;28;20439;-59
2021/08/25 04:16:16;;;;;;;;;;;19.70;64.50;;;;;;5073410;28;19912;-58
2021/08/25 04:18:41;;;;;;;;;;;19.70;64.50;;;;;;5046296;28;19948;-59
2021/08/25 04:21:07;;;;;;;;;;;19.70;64.50;;;;;;5076388;28;19923;-58
2021/08/25 04:23:32;;;;;;;;;;;19.70;64.60;;;;;;5070594;28;19935;-59
2021/08/25 04:25:57;;;;;;;;;;;19.70;64.60;;;;;;5064029;28;19912;-56
2021/08/25 04:28:23;;;;;;;;;;;19.70;64.70;;;;;;5061867;28;19969;-56
2021/08/25 04:30:48;;;;;;;;;;;19.70;64.80;;;;;;5061888;28;20504;-58
2021/08/25 04:33:14;;;;;;;;;;;19.70;64.90;;;;;;5072535;28;19936;-58
2021/08/25 04:35:39;;;;;;;;;;;19.70;65.00;;;;;;5071839;28;19912;-59
2021/08/25 04:38:05;;;;;;;;;;;19.70;65.20;;;;;;5065463;28;20003;-55
2021/08/25 04:40:30;;;;;;;;;;;19.60;65.20;;;;;;5080017;22;19924;-53
2021/08/25 04:42:55;;;;;;;;;;;19.60;65.20;;;;;;5061157;28;20611;-56
2021/08/25 04:45:21;;;;;;;;;;;19.60;65.20;;;;;;5066494;28;19916;-58
2021/08/25 04:47:46;;;;;;;;;;;19.60;65.30;;;;;;5071524;28;19934;-57
2021/08/25 04:50:12;;;;;;;;;;;19.60;65.40;;;;;;5077164;28;19916;-51
2021/08/25 04:52:37;;;;;;;;;;;19.60;65.50;;;;;;5053808;28;20333;-57
2021/08/25 04:55:03;;;;;;;;;;;19.60;65.50;;;;;;5060279;28;20377;-57
2021/08/25 04:57:28;;;;;;;;;;;19.60;65.40;;;;;;5059377;28;19912;-54
2021/08/25 04:59:54;;;;;;;;;;;19.50;65.40;;;;;;5069254;28;19924;-55
2021/08/25 05:02:19;;;;;;;;;;;19.50;65.30;;;;;;5064731;28;20300;-58
2021/08/25 05:04:46;;;;;;;;;;;19.60;65.30;;;;;;5074501;28;19923;-54
2021/08/25 05:07:12;;;;;;;;;;;19.60;65.30;;;;;;5067914;28;19938;-57
2021/08/25 05:09:38;;;;;;;;;;;19.50;65.20;;;;;;5066941;28;19913;-57
2021/08/25 05:12:03;;;;;;;;;;;19.60;65.30;;;;;;5074760;28;19919;-57
2021/08/25 05:14:29;;;;;;;;;;;19.60;65.20;;;;;;5075456;28;19920;-56
2021/08/25 05:16:54;;;;;;;;;;;19.50;65.10;;;;;;5066316;28;19931;-56
2021/08/25 05:19:20;;;;;;;;;;;19.50;65.20;;;;;;5071109;28;19913;-53
2021/08/25 05:21:45;;;;;;;;;;;19.60;65.30;;;;;;5072945;28;20651;-56
2021/08/25 05:24:11;;;;;;;;;;;19.60;65.20;;;;;;5066645;28;20257;-58
2021/08/25 05:26:36;;;;;;;;;;;19.50;65.10;;;;;;5073044;28;19924;-59
2021/08/25 05:29:02;;;;;;;;;;;19.50;65.10;;;;;;5075600;28;19955;-55
2021/08/25 05:31:27;;;;;;;;;;;19.50;66.00;;;;;;5061723;28;20341;-56
2021/08/25 05:33:52;;;;;;;;;;;19.60;66.40;;;;;;5062081;28;19921;-59
2021/08/25 05:36:18;;;;;;;;;;;19.50;66.30;;;;;;5040456;28;19916;-52
2021/08/25 05:38:43;;;;;;;;;;;19.50;66.20;;;;;;5060550;28;19912;-58
2021/08/25 05:41:09;;;;;;;;;;;19.50;66.10;;;;;;5051854;28;19926;-55
2021/08/25 05:43:34;;;;;;;;;;;19.60;66.10;;;;;;5076057;28;19916;-52
2021/08/25 05:46:00;;;;;;;;;;;19.50;65.90;;;;;;5046252;28;19935;-55
2021/08/25 05:48:25;;;;;;;;;;;19.50;65.70;;;;;;5061822;28;19918;-56
2021/08/25 05:50:51;;;;;;;;;;;19.60;65.50;;;;;;5067709;28;19913;-51
2021/08/25 05:53:16;;;;;;;;;;;19.60;65.20;;;;;;5071389;28;20591;-50
2021/08/25 05:55:42;;;;;;;;;;;19.50;64.90;;;;;;5083978;28;19912;-57
2021/08/25 05:58:07;;;;;;;;;;;19.50;64.90;;;;;;5082189;28;19918;-58
2021/08/25 06:00:32;;;;;;;;;;;19.60;64.90;;;;;;5077196;28;19912;-53
2021/08/25 06:02:58;;;;;;;;;;;19.50;64.70;;;;;;5079683;28;19918;-56
2021/08/25 06:05:23;;;;;;;;;;;19.50;64.60;;;;;;5078602;28;19923;-55
2021/08/25 06:07:49;;;;;;;;;;;19.50;64.50;;;;;;5068452;28;19991;-54
2021/08/25 06:10:14;;;;;;;;;;;19.50;64.50;;;;;;5073719;28;19935;-53
2021/08/25 06:12:40;;;;;;;;;;;19.50;64.40;;;;;;5066694;28;19939;-52
2021/08/25 06:15:05;;;;;;;;;;;19.50;64.30;;;;;;5080648;28;20584;-52
2021/08/25 06:17:31;;;;;;;;;;;19.50;65.10;;;;;;5071931;28;20009;-56
2021/08/25 06:19:56;;;;;;;;;;;19.50;65.20;;;;;;5076364;28;19962;-59
2021/08/25 06:22:22;;;;;;;;;;;19.50;66.00;;;;;;5071181;28;19927;-58
2021/08/25 06:24:47;;;;;;;;;;;19.50;66.80;;;;;;5077508;28;20006;-59
2021/08/25 06:27:13;;;;;;;;;;;19.50;67.10;;;;;;5054095;28;19912;-59
2021/08/25 06:29:38;;;;;;;;;;;19.50;67.40;;;;;;5055106;28;19912;-54
2021/08/25 06:32:04;;;;;;;;;;;19.50;67.70;;;;;;5071420;28;20266;-56
2021/08/25 06:34:29;;;;;;;;;;;19.50;68.60;;;;;;5075015;28;19920;-57
2021/08/25 06:36:55;;;;;;;;;;;19.50;68.20;;;;;;5071775;28;20280;-52
2021/08/25 06:39:21;;;;;;;;;;;19.50;67.80;;;;;;5064349;28;19916;-55
2021/08/25 06:41:46;;;;;;;;;;;19.50;67.00;;;;;;5056149;28;19916;-56
2021/08/25 06:44:11;;;;;;;;;;;19.50;66.50;;;;;;5067268;28;19927;-52
2021/08/25 06:46:37;;;;;;;;;;;19.50;66.10;;;;;;5064211;28;20377;-53
2021/08/25 06:49:02;;;;;;;;;;;19.50;66.40;;;;;;5061782;28;19916;-55
2021/08/25 06:51:29;;;;;;;;;;;19.50;65.00;;;;;;5072055;28;20403;-50
2021/08/25 06:53:54;;;;;;;;;;;19.50;65.40;;;;;;5063154;28;19936;-56
2021/08/25 06:56:21;;;;;;;;;;;19.50;65.20;;;;;;5070538;28;20374;-53
2021/08/25 06:58:46;;;;;;;;;;;19.50;65.10;;;;;;5075198;28;19913;-51
2021/08/25 07:01:11;;;;;;;;;;;19.50;64.80;;;;;;5074426;28;19927;-55
2021/08/25 07:03:37;;;;;;;;;;;19.50;64.70;;;;;;5083403;28;19916;-56
2021/08/25 07:06:02;;;;;;;;;;;19.50;64.60;;;;;;5078524;28;20377;-50
2021/08/25 07:08:28;;;;;;;;;;;19.50;64.40;;;;;;5074909;28;19935;-54
2021/08/25 07:10:53;;;;;;;;;;;19.50;64.30;;;;;;5062277;28;19942;-56
2021/08/25 07:13:19;;;;;;;;;;;19.50;64.30;;;;;;5075955;28;19927;-57
2021/08/25 07:15:44;;;;;;;;;;;19.50;64.30;;;;;;5068271;28;20404;-58
2021/08/25 07:18:10;;;;;;;;;;;19.50;64.20;;;;;;5068328;28;19917;-58
2021/08/25 07:20:35;;;;;;;;;;;19.50;64.20;;;;;;5072564;28;19916;-50
2021/08/25 07:23:00;;;;;;;;;;;19.50;64.30;;;;;;5066085;28;19920;-56
2021/08/25 07:25:26;;;;;;;;;;;19.40;64.40;;;;;;5073923;28;19916;-55
2021/08/25 07:27:51;;;;;;;;;;;19.40;64.40;;;;;;5072533;28;20612;-54
2021/08/25 07:30:17;;;;;;;;;;;19.40;64.40;;;;;;5069946;28;20087;-56
2021/08/25 07:32:43;;;;;;;;;;;19.40;64.40;;;;;;5071864;28;19912;-52
2021/08/25 07:35:09;;;;;;;;;;;19.50;64.30;;;;;;5076692;28;19916;-58
2021/08/25 07:37:34;;;;;;;;;;;19.40;64.80;;;;;;5073546;28;20688;-54
2021/08/25 07:40:00;;;;;;;;;;;19.40;64.60;;;;;;5062484;28;19933;-56
2021/08/25 07:42:25;;;;;;;;;;;19.40;64.70;;;;;;5077854;28;20023;-53
2021/08/25 07:44:51;;;;;;;;;;;19.40;64.10;;;;;;5067653;28;19954;-56
2021/08/25 07:47:16;;;;;;;;;;;19.40;64.30;;;;;;5081191;28;19912;-56
2021/08/25 07:49:42;;;;;;;;;;;19.40;64.70;;;;;;5072754;28;20417;-52
2021/08/25 07:52:07;;;;;;;;;;;19.40;64.80;;;;;;5067330;28;19912;-56
2021/08/25 07:54:33;;;;;;;;;;;19.40;64.90;;;;;;5062670;28;20007;-55
2021/08/25 07:56:58;;;;;;;;;;;19.40;64.50;;;;;;5076409;28;20607;-53
2021/08/25 07:59:23;;;;;;;;;;;19.40;64.80;;;;;;5062376;28;19923;-50
2021/08/25 08:01:49;;;;;;;;;;;19.30;64.90;;;;;;5081964;28;19919;-52
2021/08/25 08:04:14;;;;;;;;;;;19.40;65.10;;;;;;5082020;28;20262;-57
2021/08/25 08:06:40;;;;;;;;;;;19.30;65.10;;;;;;5073297;28;19913;-55
2021/08/25 08:09:05;;;;;;;;;;;19.30;65.00;;;;;;5068440;28;19917;-55
2021/08/25 08:11:31;;;;;;;;;;;19.30;65.10;;;;;;5065055;28;19924;-58
2021/08/25 08:13:56;;;;;;;;;;;19.30;65.10;;;;;;5075176;28;19916;-56
2021/08/25 08:16:22;;;;;;;;;;;19.30;63.90;;;;;;5065091;28;19962;-52
2021/08/25 08:21:32;;;;;;;;;;;19.30;65.00;;;;;;5077601;28;20305;-52
2021/08/25 08:23:57;;;;;;;;;;;19.20;65.10;;;;;;5075964;28;19916;-59
2021/08/25 08:26:24;;;;;;;;;;;19.30;65.20;;;;;;5072774;28;19967;-56
2021/08/25 08:28:49;;;;;;;;;;;19.20;65.20;;;;;;5058676;28;20374;-57
2021/08/25 08:31:15;;;;;;;;;;;19.30;65.30;;;;;;5069208;28;19923;-54
2021/08/25 08:33:40;;;;;;;;;;;19.30;65.40;;;;;;5072029;28;19916;-58
2021/08/25 08:36:06;;;;;;;;;;;19.20;65.20;;;;;;5069681;28;19940;-57
2021/08/25 08:38:31;;;;;;;;;;;19.30;65.30;;;;;;5059519;28;19923;-56
2021/08/25 08:40:57;;;;;;;;;;;19.30;65.40;;;;;;5082012;28;20403;-58
2021/08/25 08:43:22;;;;;;;;;;;19.20;65.40;;;;;;5069446;28;19943;-56
2021/08/25 08:45:48;;;;;;;;;;;19.20;65.40;;;;;;5071264;28;19931;-59
2021/08/25 08:48:13;;;;;;;;;;;19.20;65.40;;;;;;5064093;28;19918;-50
2021/08/25 08:50:43;;;;;;;;;;;19.30;65.40;;;;;;5066722;28;19912;-55
2021/08/25 08:53:08;;;;;;;;;;;19.30;65.40;;;;;;5061496;28;19913;-57
2021/08/25 08:55:34;;;;;;;;;;;19.20;65.30;;;;;;5070246;28;19928;-57
2021/08/25 08:57:59;;;;;;;;;;;19.20;65.20;;;;;;5081412;28;19916;-52
2021/08/25 09:00:25;;;;;;;;;;;19.20;65.40;;;;;;5076888;28;19936;-56
2021/08/25 09:02:51;;;;;;;;;;;19.20;65.00;;;;;;5064781;28;20293;-55
2021/08/25 09:05:17;;;;;;;;;;;19.20;65.50;;;;;;5043618;28;19970;-51
2021/08/25 09:07:58;;;;;;;;;;;19.20;65.00;;;;;;5069645;28;19912;-51
2021/08/25 09:10:27;;;;;;;;;;;19.20;65.50;;;;;;5072079;28;20384;-54
2021/08/25 09:12:59;;;;;;;;;;;19.20;65.10;;;;;;5055115;28;19985;-56
2021/08/25 09:15:26;;;;;;;;;;;19.20;65.50;;;;;;5063438;28;19913;-56
2021/08/25 09:17:55;;;;;;;;;;;19.20;64.90;;;;;;5076514;28;19912;-54
2021/08/25 09:20:20;;;;;;;;;;;19.20;65.10;;;;;;5065118;28;19965;-53
2021/08/25 09:22:46;;;;;;;;;;;19.20;65.30;;;;;;5076459;28;20391;-54
2021/08/25 09:25:24;;;;;;;;;;;19.20;65.30;;;;;;5085514;28;20001;-51
2021/08/25 09:27:53;;;;;;;;;;;19.20;65.50;;;;;;5084958;28;19913;-56
2021/08/25 09:30:18;;;;;;;;;;;19.20;65.60;;;;;;5074423;28;20005;-55
2021/08/25 09:32:44;;;;;;;;;;;19.20;65.40;;;;;;5068648;28;19974;-50
2021/08/25 09:35:09;;;;;;;;;;;19.20;65.60;;;;;;5065557;28;19919;-58
2021/08/25 09:37:35;;;;;;;;;;;19.20;64.60;;;;;;5064765;28;19915;-55
2021/08/25 09:40:00;;;;;;;;;;;19.20;65.50;;;;;;5057808;28;20727;-53
2021/08/25 09:42:26;;;;;;;;;;;19.20;65.80;;;;;;5071028;28;19916;-53
2021/08/25 09:45:01;;;;;;;;;;;19.20;65.00;;;;;;5062027;28;20373;-52
2021/08/25 09:47:46;;;;;;;;;;;19.20;64.50;;;;;;5075427;28;19912;-58
2021/08/25 09:50:15;;;;;;;;;;;19.20;65.10;;;;;;5068297;28;19948;-56
2021/08/25 09:52:40;;;;;;;;;;;19.10;65.40;;;;;;5079291;28;19954;-51
2021/08/25 09:55:06;;;;;;;;;;;19.20;65.60;;;;;;5068781;28;20373;-53
2021/08/25 09:57:35;;;;;;;;;;;19.20;65.30;;;;;;5080508;28;19947;-56
2021/08/25 10:00:01;;;;;;;;;;;19.20;65.60;;;;;;5065383;28;19916;-53
2021/08/25 10:02:26;;;;;;;;;;;19.20;65.60;;;;;;5079673;28;19958;-53
2021/08/25 10:04:54;;;;;;;;;;;19.10;65.70;;;;;;5072285;28;19929;-55
2021/08/25 10:07:19;;;;;;;;;;;19.20;65.70;;;;;;5055029;28;19912;-54
2021/08/25 10:09:45;;;;;;;;;;;19.10;65.80;;;;;;5071788;28;19943;-53
2021/08/25 10:12:10;;;;;;;;;;;19.10;65.60;;;;;;5078442;28;19920;-59
2021/08/25 10:14:36;;;;;;;;;;;19.20;65.00;;;;;;5055399;28;20484;-49
2021/08/25 10:17:02;;;;;;;;;;;19.20;64.80;;;;;;5057619;28;19939;-50
2021/08/25 10:19:31;;;;;;;;;;;19.20;65.10;;;;;;5063904;28;20011;-53
2021/08/25 10:21:56;;;;;;;;;;;19.20;64.70;;;;;;5072260;28;20343;-50
2021/08/25 10:24:22;;;;;;;;;;;19.20;64.80;;;;;;5068028;28;19978;-54
2021/08/25 10:26:56;;;;;;;;;;;19.20;65.20;;;;;;5079935;28;20441;-54
2021/08/25 10:29:22;;;;;;;;;;;19.10;65.50;;;;;;5079271;28;19966;-59
2021/08/25 10:31:51;;;;;;;;;;;19.20;64.30;;;;;;5073709;28;19916;-56
2021/08/25 10:34:38;;;;;;;;;;;19.10;65.30;;;;;;5077674;28;19912;-52
2021/08/25 10:37:12;;;;;;;;;;;19.20;64.80;;;;;;5056450;28;19916;-60
2021/08/25 10:39:41;;;;;;;;;;;19.20;64.40;;;;;;5084781;22;20002;-57
2021/08/25 10:42:07;;;;;;;;;;;19.20;63.90;;;;;;5074616;28;19966;-51
2021/08/25 10:44:41;;;;;;;;;;;19.20;63.60;;;;;;5066820;28;19920;-55
2021/08/25 10:47:08;;;;;;;;;;;19.20;63.10;;;;;;5072203;28;19912;-57
2021/08/25 10:49:36;;;;;;;;;;;19.20;64.00;;;;;;5076569;28;19912;-57
2021/08/25 10:52:25;;;;;;;;;;;19.20;64.50;;;;;;5070042;28;19920;-57
2021/08/25 10:54:51;;;;;;;;;;;19.20;62.40;;;;;;5060774;28;20001;-55
2021/08/25 10:57:17;;;;;;;;;;;19.10;64.40;;;;;;5074803;28;20008;-54
2021/08/25 10:59:42;;;;;;;;;;;19.10;64.90;;;;;;5073593;28;19912;-54
2021/08/25 11:02:08;;;;;;;;;;;19.10;65.20;;;;;;5081412;28;19943;-58
2021/08/25 11:04:33;;;;;;;;;;;19.10;65.40;;;;;;5072616;28;19923;-54
2021/08/25 11:07:01;;;;;;;;;;;19.10;65.30;;;;;;5076258;28;20552;-54
2021/08/25 11:09:30;;;;;;;;;;;19.10;62.30;;;;;;5062682;28;20600;-55
2021/08/25 11:12:02;;;;;;;;;;;19.20;63.20;;;;;;5075244;28;19916;-57
2021/08/25 11:14:28;;;;;;;;;;;19.10;64.60;;;;;;5075622;28;19912;-57
2021/08/25 11:16:54;;;;;;;;;;;19.10;65.10;;;;;;5065017;28;19943;-59
2021/08/25 11:19:20;;;;;;;;;;;19.10;65.40;;;;;;5049307;28;20309;-56
2021/08/25 11:21:46;;;;;;;;;;;19.10;65.60;;;;;;5065084;28;19916;-56
2021/08/25 11:24:11;;;;;;;;;;;19.10;65.00;;;;;;5071895;28;19916;-56
2021/08/25 11:26:37;;;;;;;;;;;19.10;65.50;;;;;;5069791;28;19940;-54
2021/08/25 11:29:03;;;;;;;;;;;19.10;65.60;;;;;;5069138;28;20383;-55
2021/08/25 11:31:28;;;;;;;;;;;19.10;64.70;;;;;;5055738;28;19913;-57
2021/08/25 11:33:54;;;;;;;;;;;19.20;62.60;;;;;;5064804;28;19927;-53
2021/08/25 11:36:19;;;;;;;;;;;19.20;64.00;;;;;;5076307;28;19913;-57
2021/08/25 11:38:45;;;;;;;;;;;19.10;64.70;;;;;;5070417;28;20397;-56
2021/08/25 11:41:10;;;;;;;;;;;19.10;64.90;;;;;;5072769;28;19924;-55
2021/08/25 11:43:45;;;;;;;;;;;19.20;62.90;;;;;;5071707;28;19919;-56
2021/08/25 11:46:10;;;;;;;;;;;19.20;64.70;;;;;;5072664;28;19973;-53
2021/08/25 11:48:36;;;;;;;;;;;19.20;64.20;;;;;;5070932;28;20298;-52
2021/08/25 11:51:01;;;;;;;;;;;19.20;61.20;;;;;;5066754;28;19913;-59
2021/08/25 11:53:28;;;;;;;;;;;19.20;63.70;;;;;;5070657;28;19920;-51
2021/08/25 11:55:54;;;;;;;;;;;19.20;62.90;;;;;;5061705;28;20360;-54
2021/08/25 11:58:21;;;;;;;;;;;19.20;60.10;;;;;;5072467;28;19955;-52
2021/08/25 12:00:46;;;;;;;;;;;19.30;61.70;;;;;;5080273;28;19943;-55
2021/08/25 12:03:12;;;;;;;;;;;19.20;62.90;;;;;;5070024;28;19955;-58
2021/08/25 12:05:50;;;;;;;;;;;19.10;63.60;;;;;;5081178;28;19977;-51
2021/08/25 12:08:16;;;;;;;;;;;19.10;61.90;;;;;;5068440;28;20378;-58
2021/08/25 12:10:45;;;;;;;;;;;19.20;59.10;;;;;;5068984;28;19912;-54
2021/08/25 12:13:29;;;;;;;;;;;19.20;62.10;;;;;;5073382;28;19974;-57
2021/08/25 12:15:55;;;;;;;;;;;19.10;63.40;;;;;;5079570;28;19916;-55
2021/08/25 12:18:21;;;;;;;;;;;19.10;64.30;;;;;;5063392;28;19920;-57
2021/08/25 12:20:48;;;;;;;;;;;19.20;58.40;;;;;;5067966;28;19919;-58
2021/08/25 12:23:14;;;;;;;;;;;19.20;60.40;;;;;;5067411;28;19912;-55
2021/08/25 12:25:43;;;;;;;;;;;19.20;60.90;;;;;;5074286;28;19916;-51
2021/08/25 12:28:09;;;;;;;;;;;19.20;58.20;;;;;;5073236;28;19912;-54
2021/08/25 12:30:35;;;;;;;;;;;19.10;62.00;;;;;;5074683;28;20274;-54
2021/08/25 12:33:04;;;;;;;;;;;19.20;59.30;;;;;;5069654;28;19912;-55
2021/08/25 12:35:30;;;;;;;;;;;19.20;62.40;;;;;;5064436;28;19916;-51
2021/08/25 12:37:55;;;;;;;;;;;19.10;62.70;;;;;;5067779;28;20016;-56
2021/08/25 12:40:22;;;;;;;;;;;19.20;61.40;;;;;;5073906;28;19920;-60
2021/08/25 12:42:48;;;;;;;;;;;19.20;63.00;;;;;;5061449;28;19920;-56
2021/08/25 12:45:14;;;;;;;;;;;19.20;61.80;;;;;;5079585;28;19973;-52
2021/08/25 12:47:39;;;;;;;;;;;19.20;61.40;;;;;;5075827;28;19920;-53
2021/08/25 12:50:05;;;;;;;;;;;19.20;62.20;;;;;;5066371;28;19923;-55
2021/08/25 12:52:30;;;;;;;;;;;19.20;61.90;;;;;;5074164;28;19920;-54
2021/08/25 12:54:56;;;;;;;;;;;19.20;61.90;;;;;;5071809;28;19916;-58
2021/08/25 12:57:21;;;;;;;;;;;19.20;58.00;;;;;;5080802;28;19938;-59
2021/08/25 12:59:48;;;;;;;;;;;19.30;58.20;;;;;;5079858;28;20514;-59
2021/08/25 13:02:15;;;;;;;;;;;19.20;60.60;;;;;;5054139;28;19912;-59
2021/08/25 13:04:40;;;;;;;;;;;19.20;58.70;;;;;;5067904;28;20339;-58
2021/08/25 13:07:10;;;;;;;;;;;19.30;60.10;;;;;;5078850;28;19923;-57
2021/08/25 13:09:35;;;;;;;;;;;19.20;61.80;;;;;;5072636;28;19952;-58
2021/08/25 13:12:01;;;;;;;;;;;19.20;63.10;;;;;;5080917;28;20610;-56
2021/08/25 13:14:26;;;;;;;;;;;19.20;63.40;;;;;;5075891;28;20010;-55
2021/08/25 13:16:53;;;;;;;;;;;19.10;63.70;;;;;;5066409;28;19912;-57
2021/08/25 13:19:19;;;;;;;;;;;19.10;63.50;;;;;;5073876;28;19912;-54
2021/08/25 13:21:44;;;;;;;;;;;19.10;63.90;;;;;;5078587;28;19960;-58
2021/08/25 13:24:09;;;;;;;;;;;19.10;63.90;;;;;;5067780;28;20399;-55
2021/08/25 13:26:35;;;;;;;;;;;19.10;64.40;;;;;;5077301;28;19916;-53
2021/08/25 13:29:00;;;;;;;;;;;19.20;61.00;;;;;;5072083;28;19924;-58
2021/08/25 13:31:26;;;;;;;;;;;19.20;62.90;;;;;;5072878;28;20010;-56
2021/08/25 13:33:51;;;;;;;;;;;19.20;63.80;;;;;;5076644;28;19912;-56
2021/08/25 13:36:17;;;;;;;;;;;19.20;63.00;;;;;;5084737;28;19916;-56
2021/08/25 13:38:42;;;;;;;;;;;19.20;61.10;;;;;;5078333;28;19916;-56
2021/08/25 13:41:08;;;;;;;;;;;19.20;62.90;;;;;;5054962;28;19927;-55
2021/08/25 13:43:33;;;;;;;;;;;19.20;62.90;;;;;;5080794;28;19920;-56
2021/08/25 13:45:58;;;;;;;;;;;19.20;63.60;;;;;;5077339;28;20292;-51
2021/08/25 13:48:24;;;;;;;;;;;19.20;62.50;;;;;;5067331;28;19942;-52
2021/08/25 13:50:49;;;;;;;;;;;19.20;63.50;;;;;;5080266;28;19912;-54
2021/08/25 13:53:15;;;;;;;;;;;19.20;64.20;;;;;;5075287;28;20377;-57
2021/08/25 13:55:40;;;;;;;;;;;19.20;64.10;;;;;;5054644;28;19975;-57
2021/08/25 13:58:06;;;;;;;;;;;19.20;64.40;;;;;;5072732;28;19912;-59
2021/08/25 14:00:31;;;;;;;;;;;19.20;63.50;;;;;;5079748;28;19959;-59
2021/08/25 14:02:57;;;;;;;;;;;19.20;64.20;;;;;;5073506;28;20350;-59
2021/08/25 14:05:22;;;;;;;;;;;19.20;63.70;;;;;;5067044;28;19917;-58
2021/08/25 14:07:47;;;;;;;;;;;19.20;63.70;;;;;;5074298;28;19947;-56
2021/08/25 14:10:13;;;;;;;;;;;19.20;62.50;;;;;;5078725;28;19942;-53
2021/08/25 14:12:39;;;;;;;;;;;19.20;63.10;;;;;;5074205;28;20506;-58